sensor_id;sensor_type;location;lat;lon;timestamp;temperature;humidity
6964;DHT22;3522;50.856;7.278;2023-02-10T00:02:14;1.60;99.90
6964;DHT22;3522;50.856;7.278;2023-02-10T00:04:40;1.70;99.90
6964;DHT22;3522;50.856;7.278;2023-02-10T00:07:07;1.70;99.90
6964;DHT22;3522;50.856;7.278;2023-02-10T00:09:34;1.70;99.90
6964;DHT22;3522;50.856;7.278;2023-02-10T00:12:01;1.80;99.90
6964;DHT22;3522;50.856;7.278;2023-02-10T00:14:28;1.80;99.90
6964;DHT22;3522;50.856;7.278;2023-02-10T00:16:55;1.80;99.90
6964;DHT22;3522;50.856;7.278;2023-02-10T00:19:23;1.80;99.90
6964;DHT22;3522;50.856;7.278;2023-02-10T00:21:50;1.80;99.90
6964;DHT22;3522;50.856;7.278;2023-02-10T00:24:17;1.80;99.90
6964;DHT22;3522;50.856;7.278;2023-02-10T00:26:43;1.80;99.90
6964;DHT22;3522;50.856;7.278;2023-02-10T00:29:11;1.80;99.90
6964;DHT22;3522;50.856;7.278;2023-02-10T00:31:38;1.90;99.90
6964;DHT22;3522;50.856;7.278;2023-02-10T00:34:04;1.90;99.90
6964;DHT22;3522;50.856;7.278;2023-02-10T00:36:31;1.90;99.90
6964;DHT22;3522;50.856;7.278;2023-02-10T00:38:58;1.90;99.90
6964;DHT22;3522;50.856;7.278;2023-02-10T00:41:24;1.90;99.90
6964;DHT22;3522;50.856;7.278;2023-02-10T00:43:51;1.90;99.90
6964;DHT22;3522;50.856;7.278;2023-02-10T00:46:19;2.00;99.90
6964;DHT22;3522;50.856;7.278;2023-02-10T00:48:46;2.00;99.90
6964;DHT22;3522;50.856;7.278;2023-02-10T00:51:13;2.00;99.90
6964;DHT22;3522;50.856;7.278;2023-02-10T00:53:40;2.00;99.90
6964;DHT22;3522;50.856;7.278;2023-02-10T00:56:07;2.00;99.90
6964;DHT22;3522;50.856;7.278;2023-02-10T00:58:34;2.00;99.90
6964;DHT22;3522;50.856;7.278;2023-02-10T01:01:01;2.00;99.90
6964;DHT22;3522;50.856;7.278;2023-02-10T01:03:28;2.10;99.90
6964;DHT22;3522;50.856;7.278;2023-02-10T01:05:55;2.10;99.90
6964;DHT22;3522;50.856;7.278;2023-02-10T01:08:22;2.10;99.90
6964;DHT22;3522;50.856;7.278;2023-02-10T01:10:48;2.10;99.90
6964;DHT22;3522;50.856;7.278;2023-02-10T01:13:15;2.10;99.90
6964;DHT22;3522;50.856;7.278;2023-02-10T01:15:42;2.10;99.90
6964;DHT22;3522;50.856;7.278;2023-02-10T01:18:09;2.10;99.90
6964;DHT22;3522;50.856;7.278;2023-02-10T01:20:38;2.10;99.90
6964;DHT22;3522;50.856;7.278;2023-02-10T01:23:05;2.10;99.90
6964;DHT22;3522;50.856;7.278;2023-02-10T01:25:32;2.10;99.90
6964;DHT22;3522;50.856;7.278;2023-02-10T01:27:59;2.10;99.90
6964;DHT22;3522;50.856;7.278;2023-02-10T01:30:25;2.10;99.90
6964;DHT22;3522;50.856;7.278;2023-02-10T01:32:52;2.20;99.90
6964;DHT22;3522;50.856;7.278;2023-02-10T01:35:19;2.20;99.90
6964;DHT22;3522;50.856;7.278;2023-02-10T01:37:46;2.20;99.90
6964;DHT22;3522;50.856;7.278;2023-02-10T01:40:13;2.20;99.90
6964;DHT22;3522;50.856;7.278;2023-02-10T01:42:40;2.20;99.90
6964;DHT22;3522;50.856;7.278;2023-02-10T01:45:18;2.20;99.90
6964;DHT22;3522;50.856;7.278;2023-02-10T01:47:45;2.20;99.90
6964;DHT22;3522;50.856;7.278;2023-02-10T01:50:13;2.20;99.90
6964;DHT22;3522;50.856;7.278;2023-02-10T01:52:39;2.20;99.90
6964;DHT22;3522;50.856;7.278;2023-02-10T01:55:08;2.20;99.90
6964;DHT22;3522;50.856;7.278;2023-02-10T01:57:35;2.20;99.90
6964;DHT22;3522;50.856;7.278;2023-02-10T02:00:04;2.20;99.90
6964;DHT22;3522;50.856;7.278;2023-02-10T02:02:31;2.20;99.90
6964;DHT22;3522;50.856;7.278;2023-02-10T02:05:00;2.20;99.90
6964;DHT22;3522;50.856;7.278;2023-02-10T02:07:28;2.20;99.90
6964;DHT22;3522;50.856;7.278;2023-02-10T02:09:55;2.20;99.90
6964;DHT22;3522;50.856;7.278;2023-02-10T02:12:26;2.20;99.90
6964;DHT22;3522;50.856;7.278;2023-02-10T02:14:56;2.20;99.90
6964;DHT22;3522;50.856;7.278;2023-02-10T02:17:26;2.20;99.90
6964;DHT22;3522;50.856;7.278;2023-02-10T02:20:08;2.20;99.90
6964;DHT22;3522;50.856;7.278;2023-02-10T02:23:04;2.20;99.90
6964;DHT22;3522;50.856;7.278;2023-02-10T02:25:38;2.20;99.90
6964;DHT22;3522;50.856;7.278;2023-02-10T02:28:13;2.20;99.90
6964;DHT22;3522;50.856;7.278;2023-02-10T02:30:45;2.20;99.90
6964;DHT22;3522;50.856;7.278;2023-02-10T02:33:19;2.20;99.90
6964;DHT22;3522;50.856;7.278;2023-02-10T02:35:48;2.20;99.90
6964;DHT22;3522;50.856;7.278;2023-02-10T02:38:16;2.20;99.90
6964;DHT22;3522;50.856;7.278;2023-02-10T02:40:42;2.20;99.90
6964;DHT22;3522;50.856;7.278;2023-02-10T02:43:09;2.20;99.90
6964;DHT22;3522;50.856;7.278;2023-02-10T02:45:37;2.30;99.90
6964;DHT22;3522;50.856;7.278;2023-02-10T02:48:11;2.20;99.90
6964;DHT22;3522;50.856;7.278;2023-02-10T02:50:42;2.20;99.90
6964;DHT22;3522;50.856;7.278;2023-02-10T02:53:17;2.30;99.90
6964;DHT22;3522;50.856;7.278;2023-02-10T02:55:47;2.30;99.90
6964;DHT22;3522;50.856;7.278;2023-02-10T02:58:15;2.20;99.90
6964;DHT22;3522;50.856;7.278;2023-02-10T03:00:44;2.30;99.90
6964;DHT22;3522;50.856;7.278;2023-02-10T03:03:12;2.30;99.90
6964;DHT22;3522;50.856;7.278;2023-02-10T03:05:39;2.30;99.90
6964;DHT22;3522;50.856;7.278;2023-02-10T03:08:07;2.30;99.90
6964;DHT22;3522;50.856;7.278;2023-02-10T03:10:33;2.30;99.90
6964;DHT22;3522;50.856;7.278;2023-02-10T03:13:00;2.30;99.90
6964;DHT22;3522;50.856;7.278;2023-02-10T03:15:26;2.20;99.90
6964;DHT22;3522;50.856;7.278;2023-02-10T03:17:55;2.20;99.90
6964;DHT22;3522;50.856;7.278;2023-02-10T03:20:22;2.30;99.90
6964;DHT22;3522;50.856;7.278;2023-02-10T03:22:48;2.30;99.90
6964;DHT22;3522;50.856;7.278;2023-02-10T03:25:16;2.30;99.90
6964;DHT22;3522;50.856;7.278;2023-02-10T03:27:43;2.30;99.90
6964;DHT22;3522;50.856;7.278;2023-02-10T03:30:10;2.30;99.90
6964;DHT22;3522;50.856;7.278;2023-02-10T03:32:36;2.30;99.90
6964;DHT22;3522;50.856;7.278;2023-02-10T03:35:03;2.20;99.90
6964;DHT22;3522;50.856;7.278;2023-02-10T03:37:29;2.30;99.90
6964;DHT22;3522;50.856;7.278;2023-02-10T03:39:56;2.20;99.90
6964;DHT22;3522;50.856;7.278;2023-02-10T03:42:24;2.20;99.90
6964;DHT22;3522;50.856;7.278;2023-02-10T03:44:50;2.30;99.90
6964;DHT22;3522;50.856;7.278;2023-02-10T03:47:17;2.20;99.90
6964;DHT22;3522;50.856;7.278;2023-02-10T03:49:43;2.20;99.90
6964;DHT22;3522;50.856;7.278;2023-02-10T03:52:10;2.20;99.90
6964;DHT22;3522;50.856;7.278;2023-02-10T03:54:37;2.20;99.90
6964;DHT22;3522;50.856;7.278;2023-02-10T03:57:03;2.20;99.90
6964;DHT22;3522;50.856;7.278;2023-02-10T03:59:32;2.20;99.90
6964;DHT22;3522;50.856;7.278;2023-02-10T04:01:59;2.20;99.90
6964;DHT22;3522;50.856;7.278;2023-02-10T04:04:25;2.30;99.90
6964;DHT22;3522;50.856;7.278;2023-02-10T04:06:52;2.30;99.90
6964;DHT22;3522;50.856;7.278;2023-02-10T04:09:18;2.30;99.90
6964;DHT22;3522;50.856;7.278;2023-02-10T04:11:45;2.20;99.90
6964;DHT22;3522;50.856;7.278;2023-02-10T04:14:11;2.20;99.90
6964;DHT22;3522;50.856;7.278;2023-02-10T04:16:39;2.20;99.90
6964;DHT22;3522;50.856;7.278;2023-02-10T04:19:06;2.10;99.90
6964;DHT22;3522;50.856;7.278;2023-02-10T04:21:32;2.10;99.90
6964;DHT22;3522;50.856;7.278;2023-02-10T04:23:59;2.10;99.90
6964;DHT22;3522;50.856;7.278;2023-02-10T04:26:26;2.00;99.90
6964;DHT22;3522;50.856;7.278;2023-02-10T04:28:52;2.00;99.90
6964;DHT22;3522;50.856;7.278;2023-02-10T04:31:19;1.90;99.90
6964;DHT22;3522;50.856;7.278;2023-02-10T04:33:46;1.90;99.90
6964;DHT22;3522;50.856;7.278;2023-02-10T04:36:13;1.80;99.90
6964;DHT22;3522;50.856;7.278;2023-02-10T04:38:39;1.70;99.90
6964;DHT22;3522;50.856;7.278;2023-02-10T04:41:06;1.70;99.90
6964;DHT22;3522;50.856;7.278;2023-02-10T04:43:33;1.60;99.90
6964;DHT22;3522;50.856;7.278;2023-02-10T04:45:59;1.50;99.90
6964;DHT22;3522;50.856;7.278;2023-02-10T04:48:27;1.50;99.90
6964;DHT22;3522;50.856;7.278;2023-02-10T04:50:55;1.40;99.90
6964;DHT22;3522;50.856;7.278;2023-02-10T04:53:22;1.40;99.90
6964;DHT22;3522;50.856;7.278;2023-02-10T04:55:49;1.30;99.90
6964;DHT22;3522;50.856;7.278;2023-02-10T04:58:15;1.30;99.90
6964;DHT22;3522;50.856;7.278;2023-02-10T05:00:42;1.20;99.90
6964;DHT22;3522;50.856;7.278;2023-02-10T05:03:08;1.20;99.90
6964;DHT22;3522;50.856;7.278;2023-02-10T05:05:35;1.20;99.90
6964;DHT22;3522;50.856;7.278;2023-02-10T05:08:03;1.20;99.90
6964;DHT22;3522;50.856;7.278;2023-02-10T05:10:29;1.10;99.90
6964;DHT22;3522;50.856;7.278;2023-02-10T05:12:56;1.10;99.90
6964;DHT22;3522;50.856;7.278;2023-02-10T05:15:22;1.10;99.90
6964;DHT22;3522;50.856;7.278;2023-02-10T05:17:49;1.10;99.90
6964;DHT22;3522;50.856;7.278;2023-02-10T05:20:15;1.20;99.90
6964;DHT22;3522;50.856;7.278;2023-02-10T05:22:42;1.30;99.90
6964;DHT22;3522;50.856;7.278;2023-02-10T05:25:10;1.30;99.90
6964;DHT22;3522;50.856;7.278;2023-02-10T05:27:37;1.30;99.90
6964;DHT22;3522;50.856;7.278;2023-02-10T05:30:04;1.40;99.90
6964;DHT22;3522;50.856;7.278;2023-02-10T05:32:31;1.40;99.90
6964;DHT22;3522;50.856;7.278;2023-02-10T05:34:58;1.50;99.90
6964;DHT22;3522;50.856;7.278;2023-02-10T05:37:24;1.50;99.90
6964;DHT22;3522;50.856;7.278;2023-02-10T05:39:51;1.50;99.90
6964;DHT22;3522;50.856;7.278;2023-02-10T05:42:18;1.60;99.90
6964;DHT22;3522;50.856;7.278;2023-02-10T05:44:45;1.60;99.90
6964;DHT22;3522;50.856;7.278;2023-02-10T05:47:11;1.70;99.90
6964;DHT22;3522;50.856;7.278;2023-02-10T05:49:38;1.70;99.90
6964;DHT22;3522;50.856;7.278;2023-02-10T05:52:05;1.80;99.90
6964;DHT22;3522;50.856;7.278;2023-02-10T05:54:31;1.80;99.90
6964;DHT22;3522;50.856;7.278;2023-02-10T05:56:58;1.80;99.90
6964;DHT22;3522;50.856;7.278;2023-02-10T05:59:26;1.90;99.90
6964;DHT22;3522;50.856;7.278;2023-02-10T06:01:52;1.90;99.90
6964;DHT22;3522;50.856;7.278;2023-02-10T06:04:19;1.90;99.90
6964;DHT22;3522;50.856;7.278;2023-02-10T06:06:45;1.90;99.90
6964;DHT22;3522;50.856;7.278;2023-02-10T06:09:12;1.90;99.90
6964;DHT22;3522;50.856;7.278;2023-02-10T06:11:39;2.00;99.90
6964;DHT22;3522;50.856;7.278;2023-02-10T06:14:05;2.00;99.90
6964;DHT22;3522;50.856;7.278;2023-02-10T06:16:33;2.00;99.90
6964;DHT22;3522;50.856;7.278;2023-02-10T06:19:00;1.90;99.90
6964;DHT22;3522;50.856;7.278;2023-02-10T06:21:26;2.00;99.90
6964;DHT22;3522;50.856;7.278;2023-02-10T06:23:53;2.00;99.90
6964;DHT22;3522;50.856;7.278;2023-02-10T06:26:19;2.00;99.90
6964;DHT22;3522;50.856;7.278;2023-02-10T06:28:46;2.00;99.90
6964;DHT22;3522;50.856;7.278;2023-02-10T06:31:12;2.00;99.90
6964;DHT22;3522;50.856;7.278;2023-02-10T06:33:40;2.10;99.90
6964;DHT22;3522;50.856;7.278;2023-02-10T06:36:07;2.10;99.90
6964;DHT22;3522;50.856;7.278;2023-02-10T06:38:34;2.10;99.90
6964;DHT22;3522;50.856;7.278;2023-02-10T06:41:01;2.00;99.90
6964;DHT22;3522;50.856;7.278;2023-02-10T06:43:28;2.00;99.90
6964;DHT22;3522;50.856;7.278;2023-02-10T06:45:55;2.00;99.90
6964;DHT22;3522;50.856;7.278;2023-02-10T06:48:21;2.00;99.90
6964;DHT22;3522;50.856;7.278;2023-02-10T06:50:49;2.00;99.90
6964;DHT22;3522;50.856;7.278;2023-02-10T06:53:16;2.00;99.90
6964;DHT22;3522;50.856;7.278;2023-02-10T06:55:42;2.00;99.90
6964;DHT22;3522;50.856;7.278;2023-02-10T06:58:09;1.90;99.90
6964;DHT22;3522;50.856;7.278;2023-02-10T07:00:36;1.90;99.90
6964;DHT22;3522;50.856;7.278;2023-02-10T07:03:02;1.80;99.90
6964;DHT22;3522;50.856;7.278;2023-02-10T07:05:29;1.80;99.90
6964;DHT22;3522;50.856;7.278;2023-02-10T07:07:58;1.70;99.90
6964;DHT22;3522;50.856;7.278;2023-02-10T07:10:25;1.70;99.90
6964;DHT22;3522;50.856;7.278;2023-02-10T07:12:52;1.70;99.90
6964;DHT22;3522;50.856;7.278;2023-02-10T07:15:18;1.70;99.90
6964;DHT22;3522;50.856;7.278;2023-02-10T07:17:48;1.70;99.90
6964;DHT22;3522;50.856;7.278;2023-02-10T07:20:16;1.80;99.90
6964;DHT22;3522;50.856;7.278;2023-02-10T07:22:42;1.80;99.90
6964;DHT22;3522;50.856;7.278;2023-02-10T07:25:10;1.90;99.90
6964;DHT22;3522;50.856;7.278;2023-02-10T07:27:37;1.90;99.90
6964;DHT22;3522;50.856;7.278;2023-02-10T07:30:03;1.90;99.90
6964;DHT22;3522;50.856;7.278;2023-02-10T07:32:30;1.90;99.90
6964;DHT22;3522;50.856;7.278;2023-02-10T07:34:57;2.00;99.90
6964;DHT22;3522;50.856;7.278;2023-02-10T07:37:23;2.10;99.90
6964;DHT22;3522;50.856;7.278;2023-02-10T07:39:51;2.10;99.90
6964;DHT22;3522;50.856;7.278;2023-02-10T07:42:19;2.20;99.90
6964;DHT22;3522;50.856;7.278;2023-02-10T07:44:46;2.20;99.90
6964;DHT22;3522;50.856;7.278;2023-02-10T07:47:13;2.30;99.90
6964;DHT22;3522;50.856;7.278;2023-02-10T07:49:39;2.30;99.90
6964;DHT22;3522;50.856;7.278;2023-02-10T07:52:06;2.30;99.90
6964;DHT22;3522;50.856;7.278;2023-02-10T07:54:32;2.40;99.90
6964;DHT22;3522;50.856;7.278;2023-02-10T07:56:59;2.40;99.90
6964;DHT22;3522;50.856;7.278;2023-02-10T07:59:27;2.40;99.90
6964;DHT22;3522;50.856;7.278;2023-02-10T08:01:53;2.50;99.90
6964;DHT22;3522;50.856;7.278;2023-02-10T08:04:20;2.50;99.90
6964;DHT22;3522;50.856;7.278;2023-02-10T08:06:46;2.50;99.90
6964;DHT22;3522;50.856;7.278;2023-02-10T08:09:13;2.50;99.90
6964;DHT22;3522;50.856;7.278;2023-02-10T08:11:42;2.60;99.90
6964;DHT22;3522;50.856;7.278;2023-02-10T08:14:09;2.60;99.90
6964;DHT22;3522;50.856;7.278;2023-02-10T08:16:36;2.60;99.90
6964;DHT22;3522;50.856;7.278;2023-02-10T08:19:03;2.70;99.90
6964;DHT22;3522;50.856;7.278;2023-02-10T08:21:29;2.70;99.90
6964;DHT22;3522;50.856;7.278;2023-02-10T08:23:57;2.70;99.90
6964;DHT22;3522;50.856;7.278;2023-02-10T08:26:23;2.70;99.90
6964;DHT22;3522;50.856;7.278;2023-02-10T08:28:50;2.80;99.90
6964;DHT22;3522;50.856;7.278;2023-02-10T08:31:19;2.80;99.90
6964;DHT22;3522;50.856;7.278;2023-02-10T08:33:48;2.80;99.90
6964;DHT22;3522;50.856;7.278;2023-02-10T08:36:15;2.80;99.90
6964;DHT22;3522;50.856;7.278;2023-02-10T08:38:42;2.90;99.90
6964;DHT22;3522;50.856;7.278;2023-02-10T08:41:09;2.90;99.90
6964;DHT22;3522;50.856;7.278;2023-02-10T08:43:35;2.90;99.90
6964;DHT22;3522;50.856;7.278;2023-02-10T08:46:02;2.90;99.90
6964;DHT22;3522;50.856;7.278;2023-02-10T08:48:29;2.90;99.90
6964;DHT22;3522;50.856;7.278;2023-02-10T08:50:58;2.90;99.90
6964;DHT22;3522;50.856;7.278;2023-02-10T08:53:24;3.00;99.90
6964;DHT22;3522;50.856;7.278;2023-02-10T08:55:55;3.10;99.90
6964;DHT22;3522;50.856;7.278;2023-02-10T08:58:21;3.20;99.90
6964;DHT22;3522;50.856;7.278;2023-02-10T09:00:48;3.20;99.90
6964;DHT22;3522;50.856;7.278;2023-02-10T09:03:14;3.30;99.90
6964;DHT22;3522;50.856;7.278;2023-02-10T09:05:41;3.30;99.90
6964;DHT22;3522;50.856;7.278;2023-02-10T09:08:10;3.40;99.90
6964;DHT22;3522;50.856;7.278;2023-02-10T09:10:38;3.40;99.90
6964;DHT22;3522;50.856;7.278;2023-02-10T09:13:04;3.50;99.90
6964;DHT22;3522;50.856;7.278;2023-02-10T09:15:31;3.50;99.90
6964;DHT22;3522;50.856;7.278;2023-02-10T09:17:57;3.50;99.90
6964;DHT22;3522;50.856;7.278;2023-02-10T09:20:24;3.50;99.90
6964;DHT22;3522;50.856;7.278;2023-02-10T09:22:50;3.40;99.90
6964;DHT22;3522;50.856;7.278;2023-02-10T09:25:18;3.50;99.90
6964;DHT22;3522;50.856;7.278;2023-02-10T09:27:45;3.50;99.90
6964;DHT22;3522;50.856;7.278;2023-02-10T09:30:12;3.60;99.90
6964;DHT22;3522;50.856;7.278;2023-02-10T09:32:38;3.50;99.90
6964;DHT22;3522;50.856;7.278;2023-02-10T09:35:05;3.60;99.90
6964;DHT22;3522;50.856;7.278;2023-02-10T09:37:31;3.70;99.90
6964;DHT22;3522;50.856;7.278;2023-02-10T09:39:58;3.70;99.90
6964;DHT22;3522;50.856;7.278;2023-02-10T09:42:28;3.80;99.90
6964;DHT22;3522;50.856;7.278;2023-02-10T09:44:56;3.80;99.90
6964;DHT22;3522;50.856;7.278;2023-02-10T09:47:31;3.90;99.90
6964;DHT22;3522;50.856;7.278;2023-02-10T09:52:54;4.10;99.90
6964;DHT22;3522;50.856;7.278;2023-02-10T09:55:25;4.20;99.90
6964;DHT22;3522;50.856;7.278;2023-02-10T09:57:55;4.30;99.90
6964;DHT22;3522;50.856;7.278;2023-02-10T10:00:24;4.40;99.90
6964;DHT22;3522;50.856;7.278;2023-02-10T10:02:53;4.50;99.90
6964;DHT22;3522;50.856;7.278;2023-02-10T10:05:22;4.50;99.90
6964;DHT22;3522;50.856;7.278;2023-02-10T10:07:50;4.60;99.90
6964;DHT22;3522;50.856;7.278;2023-02-10T10:10:18;4.70;99.90
6964;DHT22;3522;50.856;7.278;2023-02-10T10:12:46;4.90;99.90
6964;DHT22;3522;50.856;7.278;2023-02-10T10:15:15;5.00;99.90
6964;DHT22;3522;50.856;7.278;2023-02-10T10:17:55;5.10;99.90
6964;DHT22;3522;50.856;7.278;2023-02-10T10:20:28;5.20;99.90
6964;DHT22;3522;50.856;7.278;2023-02-10T10:22:56;5.50;99.90
6964;DHT22;3522;50.856;7.278;2023-02-10T10:25:40;5.80;99.90
6964;DHT22;3522;50.856;7.278;2023-02-10T10:28:12;5.90;99.90
6964;DHT22;3522;50.856;7.278;2023-02-10T10:30:46;5.80;99.90
6964;DHT22;3522;50.856;7.278;2023-02-10T10:33:17;5.90;99.90
6964;DHT22;3522;50.856;7.278;2023-02-10T10:35:46;6.00;99.90
6964;DHT22;3522;50.856;7.278;2023-02-10T10:38:14;6.10;99.90
6964;DHT22;3522;50.856;7.278;2023-02-10T10:40:41;6.10;99.90
6964;DHT22;3522;50.856;7.278;2023-02-10T10:43:10;6.10;99.90
6964;DHT22;3522;50.856;7.278;2023-02-10T10:45:39;6.20;99.90
6964;DHT22;3522;50.856;7.278;2023-02-10T10:48:09;6.20;99.90
6964;DHT22;3522;50.856;7.278;2023-02-10T10:50:37;6.30;99.90
6964;DHT22;3522;50.856;7.278;2023-02-10T10:53:05;6.30;99.90
6964;DHT22;3522;50.856;7.278;2023-02-10T10:55:38;6.50;99.90
6964;DHT22;3522;50.856;7.278;2023-02-10T10:58:07;6.70;99.90
6964;DHT22;3522;50.856;7.278;2023-02-10T11:00:36;6.90;99.90
6964;DHT22;3522;50.856;7.278;2023-02-10T11:03:04;7.00;99.90
6964;DHT22;3522;50.856;7.278;2023-02-10T11:05:32;7.30;99.90
6964;DHT22;3522;50.856;7.278;2023-02-10T11:07:59;7.60;99.90
6964;DHT22;3522;50.856;7.278;2023-02-10T11:10:30;7.70;99.90
6964;DHT22;3522;50.856;7.278;2023-02-10T11:13:00;7.80;99.90
6964;DHT22;3522;50.856;7.278;2023-02-10T11:15:31;7.90;99.90
6964;DHT22;3522;50.856;7.278;2023-02-10T11:17:59;8.10;99.90
6964;DHT22;3522;50.856;7.278;2023-02-10T11:20:27;8.20;99.90
6964;DHT22;3522;50.856;7.278;2023-02-10T11:23:00;8.20;99.90
6964;DHT22;3522;50.856;7.278;2023-02-10T11:25:28;8.10;99.90
6964;DHT22;3522;50.856;7.278;2023-02-10T11:27:55;7.90;99.90
6964;DHT22;3522;50.856;7.278;2023-02-10T11:30:26;7.80;99.90
6964;DHT22;3522;50.856;7.278;2023-02-10T11:32:52;7.70;99.90
6964;DHT22;3522;50.856;7.278;2023-02-10T11:35:19;7.60;99.90
6964;DHT22;3522;50.856;7.278;2023-02-10T11:37:50;7.40;99.90
6964;DHT22;3522;50.856;7.278;2023-02-10T11:40:19;7.40;99.90
6964;DHT22;3522;50.856;7.278;2023-02-10T11:42:46;7.40;99.90
6964;DHT22;3522;50.856;7.278;2023-02-10T11:45:16;7.40;99.90
6964;DHT22;3522;50.856;7.278;2023-02-10T11:47:43;7.20;99.90
6964;DHT22;3522;50.856;7.278;2023-02-10T11:50:18;7.30;99.90
6964;DHT22;3522;50.856;7.278;2023-02-10T11:52:45;7.60;99.90
6964;DHT22;3522;50.856;7.278;2023-02-10T11:55:12;7.70;99.90
6964;DHT22;3522;50.856;7.278;2023-02-10T11:57:44;7.80;99.90
6964;DHT22;3522;50.856;7.278;2023-02-10T12:00:33;7.70;99.90
6964;DHT22;3522;50.856;7.278;2023-02-10T12:05:43;7.60;99.90
6964;DHT22;3522;50.856;7.278;2023-02-10T12:08:14;7.90;99.90
6964;DHT22;3522;50.856;7.278;2023-02-10T12:10:47;7.80;99.90
6964;DHT22;3522;50.856;7.278;2023-02-10T12:13:19;7.80;99.90
6964;DHT22;3522;50.856;7.278;2023-02-10T12:15:49;7.90;99.90
6964;DHT22;3522;50.856;7.278;2023-02-10T12:18:22;8.00;99.90
6964;DHT22;3522;50.856;7.278;2023-02-10T12:20:57;8.10;99.90
6964;DHT22;3522;50.856;7.278;2023-02-10T12:23:34;8.10;99.90
6964;DHT22;3522;50.856;7.278;2023-02-10T12:26:06;7.90;99.90
6964;DHT22;3522;50.856;7.278;2023-02-10T12:28:37;7.90;99.90
6964;DHT22;3522;50.856;7.278;2023-02-10T12:31:10;7.80;99.90
6964;DHT22;3522;50.856;7.278;2023-02-10T12:33:40;7.90;99.90
6964;DHT22;3522;50.856;7.278;2023-02-10T12:36:11;8.00;99.90
6964;DHT22;3522;50.856;7.278;2023-02-10T12:38:45;8.10;99.90
6964;DHT22;3522;50.856;7.278;2023-02-10T12:41:15;8.20;99.90
6964;DHT22;3522;50.856;7.278;2023-02-10T12:43:52;8.20;99.90
6964;DHT22;3522;50.856;7.278;2023-02-10T12:46:23;8.00;99.90
6964;DHT22;3522;50.856;7.278;2023-02-10T12:48:57;8.00;99.90
6964;DHT22;3522;50.856;7.278;2023-02-10T12:51:30;8.00;99.90
6964;DHT22;3522;50.856;7.278;2023-02-10T12:53:59;7.90;99.90
6964;DHT22;3522;50.856;7.278;2023-02-10T12:56:29;7.80;99.90
6964;DHT22;3522;50.856;7.278;2023-02-10T12:59:02;7.80;99.90
6964;DHT22;3522;50.856;7.278;2023-02-10T13:01:31;7.60;99.90
6964;DHT22;3522;50.856;7.278;2023-02-10T13:04:03;7.50;99.90
6964;DHT22;3522;50.856;7.278;2023-02-10T13:06:32;7.60;99.90
6964;DHT22;3522;50.856;7.278;2023-02-10T13:09:00;7.60;99.90
6964;DHT22;3522;50.856;7.278;2023-02-10T13:11:33;7.60;99.90
6964;DHT22;3522;50.856;7.278;2023-02-10T13:14:03;7.60;99.90
6964;DHT22;3522;50.856;7.278;2023-02-10T13:16:31;7.50;99.90
6964;DHT22;3522;50.856;7.278;2023-02-10T13:19:01;7.60;99.90
6964;DHT22;3522;50.856;7.278;2023-02-10T13:21:33;7.60;99.90
6964;DHT22;3522;50.856;7.278;2023-02-10T13:24:04;7.50;99.90
6964;DHT22;3522;50.856;7.278;2023-02-10T13:26:34;7.50;99.90
6964;DHT22;3522;50.856;7.278;2023-02-10T13:29:12;7.50;99.90
6964;DHT22;3522;50.856;7.278;2023-02-10T13:34:25;7.30;99.90
6964;DHT22;3522;50.856;7.278;2023-02-10T13:36:53;7.30;99.90
6964;DHT22;3522;50.856;7.278;2023-02-10T13:39:21;7.40;99.90
6964;DHT22;3522;50.856;7.278;2023-02-10T13:41:50;7.60;99.90
6964;DHT22;3522;50.856;7.278;2023-02-10T13:44:25;7.70;99.90
6964;DHT22;3522;50.856;7.278;2023-02-10T13:46:57;7.70;99.90
6964;DHT22;3522;50.856;7.278;2023-02-10T13:49:24;7.70;99.90
6964;DHT22;3522;50.856;7.278;2023-02-10T13:51:58;7.80;99.90
6964;DHT22;3522;50.856;7.278;2023-02-10T13:54:27;7.90;99.90
6964;DHT22;3522;50.856;7.278;2023-02-10T13:56:54;8.00;99.90
6964;DHT22;3522;50.856;7.278;2023-02-10T13:59:28;8.00;99.90
6964;DHT22;3522;50.856;7.278;2023-02-10T14:02:02;8.00;99.90
6964;DHT22;3522;50.856;7.278;2023-02-10T14:04:36;7.90;99.90
6964;DHT22;3522;50.856;7.278;2023-02-10T14:07:13;7.80;99.90
6964;DHT22;3522;50.856;7.278;2023-02-10T14:09:39;7.80;99.90
6964;DHT22;3522;50.856;7.278;2023-02-10T14:12:24;7.80;99.90
6964;DHT22;3522;50.856;7.278;2023-02-10T14:14:52;7.80;99.90
6964;DHT22;3522;50.856;7.278;2023-02-10T14:17:20;7.70;99.90
6964;DHT22;3522;50.856;7.278;2023-02-10T14:19:50;7.70;99.90
6964;DHT22;3522;50.856;7.278;2023-02-10T14:22:20;7.70;99.90
6964;DHT22;3522;50.856;7.278;2023-02-10T14:24:47;7.60;99.90
6964;DHT22;3522;50.856;7.278;2023-02-10T14:27:14;7.60;99.90
6964;DHT22;3522;50.856;7.278;2023-02-10T14:29:44;7.60;99.90
6964;DHT22;3522;50.856;7.278;2023-02-10T14:32:14;7.60;99.90
6964;DHT22;3522;50.856;7.278;2023-02-10T14:34:51;7.60;99.90
6964;DHT22;3522;50.856;7.278;2023-02-10T14:37:18;7.60;99.90
6964;DHT22;3522;50.856;7.278;2023-02-10T14:39:49;7.60;99.90
6964;DHT22;3522;50.856;7.278;2023-02-10T14:42:16;7.60;99.90
6964;DHT22;3522;50.856;7.278;2023-02-10T14:44:44;7.50;99.90
6964;DHT22;3522;50.856;7.278;2023-02-10T14:47:16;7.50;99.90
6964;DHT22;3522;50.856;7.278;2023-02-10T14:49:43;7.50;99.90
6964;DHT22;3522;50.856;7.278;2023-02-10T14:52:19;7.50;99.90
6964;DHT22;3522;50.856;7.278;2023-02-10T14:54:47;7.50;99.90
6964;DHT22;3522;50.856;7.278;2023-02-10T14:57:13;7.50;99.90
6964;DHT22;3522;50.856;7.278;2023-02-10T14:59:42;7.50;99.90
6964;DHT22;3522;50.856;7.278;2023-02-10T15:02:13;7.50;99.90
6964;DHT22;3522;50.856;7.278;2023-02-10T15:04:44;7.50;99.90
6964;DHT22;3522;50.856;7.278;2023-02-10T15:07:12;7.60;99.90
6964;DHT22;3522;50.856;7.278;2023-02-10T15:09:42;7.60;99.90
6964;DHT22;3522;50.856;7.278;2023-02-10T15:12:08;7.60;99.90
6964;DHT22;3522;50.856;7.278;2023-02-10T15:14:41;7.70;99.90
6964;DHT22;3522;50.856;7.278;2023-02-10T15:17:10;7.70;99.90
6964;DHT22;3522;50.856;7.278;2023-02-10T15:19:50;7.70;99.90
6964;DHT22;3522;50.856;7.278;2023-02-10T15:22:31;7.60;99.90
6964;DHT22;3522;50.856;7.278;2023-02-10T15:24:57;7.60;99.90
6964;DHT22;3522;50.856;7.278;2023-02-10T15:27:24;7.50;99.90
6964;DHT22;3522;50.856;7.278;2023-02-10T15:29:50;7.40;99.90
6964;DHT22;3522;50.856;7.278;2023-02-10T15:32:18;7.30;99.90
6964;DHT22;3522;50.856;7.278;2023-02-10T15:34:45;7.30;99.90
6964;DHT22;3522;50.856;7.278;2023-02-10T15:37:16;7.30;99.90
6964;DHT22;3522;50.856;7.278;2023-02-10T15:39:53;7.30;99.90
6964;DHT22;3522;50.856;7.278;2023-02-10T15:42:20;7.20;99.90
6964;DHT22;3522;50.856;7.278;2023-02-10T15:44:47;7.20;99.90
6964;DHT22;3522;50.856;7.278;2023-02-10T15:47:18;7.20;99.90
6964;DHT22;3522;50.856;7.278;2023-02-10T15:49:46;7.10;99.90
6964;DHT22;3522;50.856;7.278;2023-02-10T15:52:16;7.10;99.90
6964;DHT22;3522;50.856;7.278;2023-02-10T15:54:43;7.10;99.90
6964;DHT22;3522;50.856;7.278;2023-02-10T15:57:11;7.10;99.90
6964;DHT22;3522;50.856;7.278;2023-02-10T15:59:38;7.00;99.90
6964;DHT22;3522;50.856;7.278;2023-02-10T16:02:05;7.00;99.90
6964;DHT22;3522;50.856;7.278;2023-02-10T16:04:33;6.90;99.90
6964;DHT22;3522;50.856;7.278;2023-02-10T16:07:00;6.80;99.90
6964;DHT22;3522;50.856;7.278;2023-02-10T16:09:29;6.70;99.90
6964;DHT22;3522;50.856;7.278;2023-02-10T16:11:56;6.60;99.90
6964;DHT22;3522;50.856;7.278;2023-02-10T16:14:23;6.50;99.90
6964;DHT22;3522;50.856;7.278;2023-02-10T16:16:50;6.40;99.90
6964;DHT22;3522;50.856;7.278;2023-02-10T16:19:18;6.40;99.90
6964;DHT22;3522;50.856;7.278;2023-02-10T16:21:46;6.40;99.90
6964;DHT22;3522;50.856;7.278;2023-02-10T16:24:13;6.30;99.90
6964;DHT22;3522;50.856;7.278;2023-02-10T16:26:41;6.30;99.90
6964;DHT22;3522;50.856;7.278;2023-02-10T16:29:09;6.30;99.90
6964;DHT22;3522;50.856;7.278;2023-02-10T16:31:37;6.20;99.90
6964;DHT22;3522;50.856;7.278;2023-02-10T16:34:03;6.20;99.90